createdAt,value
2022-08-14T00:02:01.631Z,17.40
2022-08-14T00:04:34.371Z,17.40
2022-08-14T00:07:07.599Z,17.50
2022-08-14T00:09:39.987Z,17.40
2022-08-14T00:12:33.184Z,17.50
2022-08-14T00:15:17.566Z,17.40
2022-08-14T00:17:47.890Z,17.30
2022-08-14T00:20:23.755Z,17.30
2022-08-14T00:23:12.300Z,17.30
2022-08-14T00:25:58.897Z,17.30
2022-08-14T00:28:37.057Z,17.30
2022-08-14T00:31:07.833Z,17.20
2022-08-14T00:33:50.616Z,17.30
2022-08-14T00:36:36.817Z,17.20
2022-08-14T00:39:13.699Z,17.20
2022-08-14T00:41:42.438Z,17.20
2022-08-14T00:44:10.909Z,17.20
2022-08-14T00:46:39.184Z,17.10
2022-08-14T00:49:08.188Z,17.10
2022-08-14T00:51:41.092Z,17.10
2022-08-14T00:54:21.037Z,17.10
2022-08-14T00:57:24.992Z,17.00
2022-08-14T00:59:53.525Z,16.90
2022-08-14T01:02:24.618Z,16.80
2022-08-14T01:05:00.693Z,16.80
2022-08-14T01:07:47.263Z,16.80
2022-08-14T01:10:21.605Z,16.70
2022-08-14T01:12:51.207Z,16.70
2022-08-14T01:15:31.674Z,16.70
2022-08-14T01:18:27.922Z,16.60
2022-08-14T01:21:06.410Z,16.60
2022-08-14T01:23:51.065Z,16.60
2022-08-14T01:26:34.997Z,16.60
2022-08-14T01:29:10.903Z,16.50
2022-08-14T01:31:45.564Z,16.40
2022-08-14T01:35:18.268Z,16.40
2022-08-14T01:37:07.608Z,16.40
2022-08-14T01:39:40.470Z,16.40
2022-08-14T01:42:08.970Z,16.40
2022-08-14T01:44:57.560Z,16.40
2022-08-14T01:47:27.331Z,16.30
2022-08-14T01:50:02.126Z,16.30
2022-08-14T01:52:59.009Z,16.30
2022-08-14T01:55:30.439Z,16.10
2022-08-14T01:58:01.202Z,16.20
2022-08-14T02:00:36.140Z,16.10
2022-08-14T02:03:06.748Z,16.10
2022-08-14T02:05:38.366Z,16.10
2022-08-14T02:08:08.976Z,16.10
2022-08-14T02:10:46.839Z,16.00
2022-08-14T02:13:19.000Z,15.90
2022-08-14T02:15:48.607Z,15.90
2022-08-14T02:18:18.585Z,15.90
2022-08-14T02:20:48.689Z,15.90
2022-08-14T02:23:23.924Z,15.80
2022-08-14T02:26:24.399Z,15.90
2022-08-14T02:28:58.528Z,15.90
2022-08-14T02:31:42.071Z,15.80
2022-08-14T02:34:22.108Z,15.70
2022-08-14T02:37:03.510Z,15.80
2022-08-14T02:39:37.262Z,15.80
2022-08-14T02:42:13.208Z,15.70
2022-08-14T02:44:49.247Z,15.70
2022-08-14T02:47:20.894Z,15.60
2022-08-14T02:49:55.004Z,15.50
2022-08-14T02:52:56.828Z,15.70
2022-08-14T02:55:19.841Z,15.70
2022-08-14T02:57:58.161Z,15.70
2022-08-14T03:00:32.861Z,15.60
2022-08-14T03:03:02.623Z,15.60
2022-08-14T03:05:37.125Z,15.60
2022-08-14T03:08:11.797Z,15.60
2022-08-14T03:10:49.074Z,15.60
2022-08-14T03:13:21.033Z,15.60
2022-08-14T03:15:56.226Z,15.60
2022-08-14T03:18:31.387Z,15.60
2022-08-14T03:21:03.837Z,15.50
2022-08-14T03:23:36.380Z,15.50
2022-08-14T03:26:08.485Z,15.50
2022-08-14T03:28:40.380Z,15.50
2022-08-14T03:31:13.050Z,15.40
2022-08-14T03:33:42.317Z,15.50
2022-08-14T03:37:37.422Z,15.50
2022-08-14T03:39:14.271Z,15.40
2022-08-14T03:41:49.813Z,15.40
2022-08-14T03:45:19.986Z,15.30
2022-08-14T03:47:08.235Z,15.30
2022-08-14T03:49:42.268Z,15.30
2022-08-14T03:52:28.082Z,15.20
2022-08-14T03:55:00.445Z,15.40
2022-08-14T03:57:32.629Z,15.40
2022-08-14T04:00:04.733Z,15.30
2022-08-14T04:02:47.143Z,15.20
2022-08-14T04:05:16.411Z,15.20
2022-08-14T04:08:00.350Z,15.10
2022-08-14T04:10:33.806Z,15.10
2022-08-14T04:13:03.264Z,15.20
2022-08-14T04:15:56.672Z,15.00
2022-08-14T04:18:48.030Z,15.20
2022-08-14T04:21:17.315Z,15.10
2022-08-14T04:23:49.188Z,15.10
2022-08-14T04:26:42.283Z,15.30
2022-08-14T04:29:15.405Z,15.20
2022-08-14T04:32:58.864Z,15.10
2022-08-14T04:34:35.604Z,15.10
2022-08-14T04:37:24.948Z,15.20
2022-08-14T04:40:11.969Z,15.20
2022-08-14T04:42:58.045Z,15.20
2022-08-14T04:45:36.294Z,15.30
2022-08-14T04:48:36.788Z,15.30
2022-08-14T04:51:05.842Z,15.30
2022-08-14T04:53:37.344Z,15.20
2022-08-14T04:56:31.227Z,15.20
2022-08-14T04:59:09.384Z,15.20
2022-08-14T05:01:41.605Z,15.30
2022-08-14T05:04:19.685Z,15.30
2022-08-14T05:06:49.829Z,15.40
2022-08-14T05:09:22.584Z,15.40
2022-08-14T05:11:51.518Z,15.50
2022-08-14T05:14:45.991Z,15.80
2022-08-14T05:17:10.574Z,16.00
2022-08-14T05:19:44.815Z,16.40
2022-08-14T05:22:29.968Z,16.70
2022-08-14T05:24:58.443Z,17.00
2022-08-14T05:27:26.501Z,17.30
2022-08-14T05:29:59.656Z,17.50
2022-08-14T05:32:28.451Z,17.90
2022-08-14T05:34:59.432Z,18.30
2022-08-14T05:37:30.717Z,18.80
2022-08-14T05:40:00.833Z,19.30
2022-08-14T05:42:32.032Z,19.80
2022-08-14T05:45:02.352Z,20.30
2022-08-14T05:47:33.938Z,20.70
2022-08-14T05:50:18.539Z,21.30
2022-08-14T05:52:48.002Z,21.80
2022-08-14T05:55:16.798Z,22.30
2022-08-14T05:57:52.778Z,22.80
2022-08-14T06:00:29.069Z,23.30
2022-08-14T06:03:00.260Z,23.80
2022-08-14T06:05:30.152Z,24.20
2022-08-14T06:07:59.346Z,24.60
2022-08-14T06:10:29.103Z,25.00
2022-08-14T06:12:58.218Z,25.40
2022-08-14T06:15:29.944Z,25.60
2022-08-14T06:18:00.499Z,25.90
2022-08-14T06:20:31.296Z,26.40
2022-08-14T06:23:03.079Z,26.60
2022-08-14T06:25:32.249Z,26.40
2022-08-14T06:28:02.136Z,26.40
2022-08-14T06:30:45.869Z,26.30
2022-08-14T06:33:16.278Z,26.10
2022-08-14T06:35:49.780Z,26.10
2022-08-14T06:38:19.906Z,26.30
2022-08-14T06:40:51.168Z,27.10
2022-08-14T06:43:27.040Z,27.70
2022-08-14T06:45:57.926Z,28.30
2022-08-14T06:48:28.999Z,28.90
2022-08-14T06:51:02.378Z,29.60
2022-08-14T06:53:32.544Z,30.00
2022-08-14T06:56:02.393Z,30.40
2022-08-14T06:58:34.229Z,30.40
2022-08-14T07:01:27.489Z,30.70
2022-08-14T07:04:23.223Z,30.60
2022-08-14T07:06:59.422Z,31.10
2022-08-14T07:09:44.276Z,31.40
2022-08-14T07:12:52.252Z,31.50
2022-08-14T07:15:08.373Z,31.60
2022-08-14T07:17:44.526Z,31.80
2022-08-14T07:20:13.929Z,31.90
2022-08-14T07:22:56.454Z,32.00
2022-08-14T07:25:32.267Z,32.30
2022-08-14T07:28:01.854Z,32.60
2022-08-14T07:30:33.906Z,32.70
2022-08-14T07:33:03.325Z,32.60
2022-08-14T07:35:42.848Z,32.60
2022-08-14T07:38:21.416Z,32.80
2022-08-14T07:40:52.958Z,33.40
2022-08-14T07:43:30.934Z,33.60
2022-08-14T07:45:59.756Z,33.90
2022-08-14T07:48:28.420Z,33.70
2022-08-14T07:51:03.062Z,34.10
2022-08-14T07:53:45.664Z,34.20
2022-08-14T07:56:43.918Z,34.10
2022-08-14T07:59:06.561Z,33.90
2022-08-14T08:01:37.655Z,33.90
2022-08-14T08:04:24.032Z,33.70
2022-08-14T08:06:53.555Z,34.20
2022-08-14T08:09:31.712Z,34.70
2022-08-14T08:12:01.607Z,34.40
2022-08-14T08:14:55.427Z,33.80
2022-08-14T08:17:24.716Z,33.00
2022-08-14T08:19:52.889Z,33.10
2022-08-14T08:22:21.394Z,33.50
2022-08-14T08:24:51.375Z,34.50
2022-08-14T08:27:21.429Z,34.40
2022-08-14T08:29:50.677Z,34.40
2022-08-14T08:32:19.972Z,34.30
2022-08-14T08:34:49.597Z,34.10
2022-08-14T08:37:17.713Z,34.30
2022-08-14T08:40:01.648Z,34.20
2022-08-14T08:42:38.628Z,34.40
2022-08-14T08:45:17.321Z,34.60
2022-08-14T08:47:46.547Z,34.60
2022-08-14T08:50:31.755Z,35.00
2022-08-14T08:53:02.326Z,35.10
2022-08-14T08:55:34.004Z,35.00
2022-08-14T08:58:16.054Z,35.20
2022-08-14T09:00:54.426Z,35.20
2022-08-14T09:03:27.582Z,35.40
2022-08-14T09:05:57.406Z,35.40
2022-08-14T09:08:31.649Z,35.50
2022-08-14T09:11:18.442Z,35.00
2022-08-14T09:13:50.695Z,34.90
2022-08-14T09:16:23.674Z,34.40
2022-08-14T09:18:53.889Z,34.80
2022-08-14T09:21:24.223Z,34.90
2022-08-14T09:24:28.368Z,34.70
2022-08-14T09:26:44.344Z,35.10
2022-08-14T09:29:19.849Z,35.10
2022-08-14T09:31:57.553Z,34.50
2022-08-14T09:34:58.145Z,34.30
2022-08-14T09:37:40.334Z,34.50
2022-08-14T09:40:21.021Z,34.50
2022-08-14T09:43:04.239Z,34.70
2022-08-14T09:45:52.791Z,33.40
2022-08-14T09:48:29.905Z,33.40
2022-08-14T09:54:18.038Z,33.40
2022-08-14T09:56:45.576Z,33.40
2022-08-14T09:59:16.505Z,33.20
2022-08-14T10:01:52.617Z,33.00
2022-08-14T10:04:33.193Z,33.10
2022-08-14T10:07:04.843Z,32.80
2022-08-14T10:09:35.062Z,32.50
2022-08-14T10:12:06.805Z,32.70
2022-08-14T10:14:53.311Z,32.80
2022-08-14T10:17:27.466Z,33.10
2022-08-14T10:19:58.047Z,33.90
2022-08-14T10:23:12.978Z,33.60
2022-08-14T10:25:19.826Z,33.70
2022-08-14T10:27:58.780Z,32.80
2022-08-14T10:30:35.013Z,32.50
2022-08-14T10:33:07.175Z,32.50
2022-08-14T10:35:42.341Z,32.30
2022-08-14T10:38:16.025Z,32.20
2022-08-14T10:40:51.985Z,32.00
2022-08-14T10:43:27.585Z,32.60
2022-08-14T10:46:21.927Z,32.90
2022-08-14T10:49:04.244Z,33.10
2022-08-14T10:51:39.828Z,33.40
2022-08-14T10:54:26.268Z,33.30
2022-08-14T10:57:11.289Z,33.20
2022-08-14T10:59:44.847Z,32.60
2022-08-14T11:02:50.338Z,32.80
2022-08-14T11:05:18.073Z,32.90
2022-08-14T11:07:59.739Z,33.30
2022-08-14T11:10:42.825Z,33.70
2022-08-14T11:13:17.028Z,33.70
2022-08-14T11:15:46.828Z,33.10
2022-08-14T11:18:20.567Z,33.20
2022-08-14T11:21:01.984Z,33.60
2022-08-14T11:23:38.545Z,33.70
2022-08-14T11:26:10.188Z,34.00
2022-08-14T11:28:48.612Z,34.00
2022-08-14T11:31:22.068Z,34.10
2022-08-14T11:33:53.863Z,33.70
2022-08-14T11:37:02.467Z,33.70
2022-08-14T11:39:33.328Z,33.90
2022-08-14T11:42:55.450Z,34.30
2022-08-14T11:44:53.792Z,34.30
2022-08-14T11:47:24.977Z,34.90
2022-08-14T11:49:54.791Z,34.20
2022-08-14T11:52:40.328Z,33.70
2022-08-14T11:55:12.621Z,33.50
2022-08-14T11:57:41.836Z,33.40
2022-08-14T12:00:14.844Z,33.40
2022-08-14T12:03:02.807Z,33.40
2022-08-14T12:05:34.181Z,33.90
2022-08-14T12:08:07.287Z,33.90
2022-08-14T12:10:43.546Z,34.20
2022-08-14T12:13:14.076Z,34.90
2022-08-14T12:15:49.628Z,35.90
2022-08-14T12:18:32.320Z,36.00
2022-08-14T12:21:11.625Z,35.90
2022-08-14T12:24:00.791Z,36.20
2022-08-14T12:26:39.283Z,35.70
2022-08-14T12:29:10.801Z,35.20
2022-08-14T12:31:44.524Z,34.90
2022-08-14T12:34:20.047Z,34.90
2022-08-14T12:36:49.043Z,35.30
2022-08-14T12:39:23.849Z,34.90
2022-08-14T12:41:57.220Z,34.40
2022-08-14T12:44:33.448Z,33.80
2022-08-14T12:47:13.340Z,33.80
2022-08-14T12:49:52.884Z,33.60
2022-08-14T12:52:36.148Z,33.40
2022-08-14T12:55:20.780Z,33.30
2022-08-14T12:57:53.261Z,33.70
2022-08-14T13:00:23.958Z,33.90
2022-08-14T13:02:55.430Z,33.70
2022-08-14T13:05:29.032Z,33.30
2022-08-14T13:07:59.139Z,33.10
2022-08-14T13:10:47.785Z,32.90
2022-08-14T13:13:21.626Z,33.00
2022-08-14T13:15:56.206Z,33.30
2022-08-14T13:18:27.721Z,33.70
2022-08-14T13:20:59.801Z,34.00
2022-08-14T13:23:36.072Z,33.40
2022-08-14T13:26:07.307Z,33.10
2022-08-14T13:29:02.513Z,33.00
2022-08-14T13:31:34.525Z,33.00
2022-08-14T13:34:04.472Z,32.90
2022-08-14T13:36:51.935Z,32.80
2022-08-14T13:39:23.711Z,32.80
2022-08-14T13:41:55.614Z,32.60
2022-08-14T13:44:28.678Z,32.50
2022-08-14T13:46:58.211Z,32.30
2022-08-14T13:49:29.157Z,32.40
2022-08-14T13:51:59.829Z,32.30
2022-08-14T13:54:32.690Z,32.50
2022-08-14T13:57:03.681Z,32.60
2022-08-14T13:59:37.755Z,32.80
2022-08-14T14:02:09.137Z,32.70
2022-08-14T14:04:41.147Z,32.40
2022-08-14T14:07:13.006Z,32.30
2022-08-14T14:09:51.187Z,32.00
2022-08-14T14:12:36.457Z,32.00
2022-08-14T14:15:10.765Z,32.50
2022-08-14T14:17:40.597Z,32.70
2022-08-14T14:20:15.251Z,32.80
2022-08-14T14:23:09.483Z,32.80
2022-08-14T14:25:47.967Z,32.70
2022-08-14T14:28:24.543Z,32.50
2022-08-14T14:30:57.416Z,32.30
2022-08-14T14:33:49.320Z,32.30
2022-08-14T14:36:21.940Z,32.20
2022-08-14T14:38:56.063Z,32.20
2022-08-14T14:41:25.399Z,32.20
2022-08-14T14:43:57.575Z,32.20
2022-08-14T14:46:35.987Z,32.30
2022-08-14T14:49:07.787Z,32.50
2022-08-14T14:51:43.371Z,32.50
2022-08-14T14:54:13.048Z,32.60
2022-08-14T14:56:49.837Z,32.50
2022-08-14T14:59:21.630Z,32.50
2022-08-14T15:01:51.288Z,32.40
2022-08-14T15:04:20.032Z,32.40
2022-08-14T15:06:49.855Z,32.50
2022-08-14T15:09:18.508Z,32.30
2022-08-14T15:11:48.470Z,32.40
2022-08-14T15:14:54.613Z,32.40
2022-08-14T15:17:07.259Z,32.50
2022-08-14T15:19:36.097Z,32.70
2022-08-14T15:22:05.059Z,32.80
2022-08-14T15:24:35.792Z,32.60
2022-08-14T15:27:06.565Z,32.60
2022-08-14T15:29:43.054Z,32.50
2022-08-14T15:32:12.819Z,32.50
2022-08-14T15:34:51.319Z,32.30
2022-08-14T15:37:22.073Z,32.00
2022-08-14T15:39:52.705Z,31.80
2022-08-14T15:42:22.979Z,31.90
2022-08-14T15:44:58.016Z,32.10
2022-08-14T15:47:33.026Z,32.00
2022-08-14T15:50:04.717Z,31.90
2022-08-14T15:52:37.131Z,31.80
2022-08-14T15:55:08.082Z,31.90
2022-08-14T15:57:36.915Z,32.00
2022-08-14T16:00:40.801Z,32.00
2022-08-14T16:03:15.906Z,31.90
2022-08-14T16:05:46.056Z,31.80
2022-08-14T16:08:26.861Z,31.80
2022-08-14T16:11:02.800Z,31.70
2022-08-14T16:13:41.566Z,31.60
2022-08-14T16:16:50.825Z,31.50
2022-08-14T16:19:23.650Z,31.50
2022-08-14T16:22:01.684Z,31.20
2022-08-14T16:25:01.943Z,31.20
2022-08-14T16:27:38.681Z,31.20
2022-08-14T16:30:20.760Z,31.10
2022-08-14T16:32:56.251Z,31.00
2022-08-14T16:35:42.223Z,30.90
2022-08-14T16:38:35.793Z,30.80
2022-08-14T16:41:18.228Z,30.80
2022-08-14T16:43:59.238Z,30.70
2022-08-14T16:46:28.764Z,30.60
2022-08-14T16:48:58.722Z,30.60
2022-08-14T16:51:29.467Z,30.40
2022-08-14T16:54:00.046Z,30.20
2022-08-14T16:56:30.856Z,30.10
2022-08-14T16:59:12.112Z,30.20
2022-08-14T17:01:44.029Z,30.00
2022-08-14T17:04:14.917Z,29.90
2022-08-14T17:06:55.907Z,29.70
2022-08-14T17:09:31.761Z,29.60
2022-08-14T17:12:07.203Z,29.40
2022-08-14T17:14:52.383Z,29.30
2022-08-14T17:17:22.164Z,29.20
2022-08-14T17:19:59.889Z,28.90
2022-08-14T17:22:48.610Z,29.00
2022-08-14T17:25:18.491Z,28.80
2022-08-14T17:28:51.416Z,28.70
2022-08-14T17:31:02.632Z,28.70
2022-08-14T17:33:33.757Z,28.50
2022-08-14T17:36:21.060Z,28.40
2022-08-14T17:39:06.879Z,28.20
2022-08-14T17:41:43.925Z,28.20
2022-08-14T17:44:33.943Z,28.00
2022-08-14T17:47:18.527Z,27.80
2022-08-14T17:49:51.741Z,27.60
2022-08-14T17:52:34.267Z,27.50
2022-08-14T17:55:09.753Z,27.40
2022-08-14T17:57:42.357Z,27.20
2022-08-14T18:00:14.730Z,27.10
2022-08-14T18:02:50.452Z,26.90
2022-08-14T18:05:23.042Z,26.70
2022-08-14T18:08:32.691Z,26.70
2022-08-14T18:10:54.874Z,26.40
2022-08-14T18:13:50.202Z,26.30
2022-08-14T18:16:20.097Z,26.20
2022-08-14T18:18:49.748Z,26.10
2022-08-14T18:21:41.709Z,25.90
2022-08-14T18:24:20.218Z,25.70
2022-08-14T18:27:03.257Z,25.50
2022-08-14T18:29:44.579Z,25.40
2022-08-14T18:32:47.662Z,25.30
2022-08-14T18:35:45.270Z,25.10
2022-08-14T18:38:25.473Z,25.00
2022-08-14T18:40:56.103Z,24.80
2022-08-14T18:43:58.968Z,24.60
2022-08-14T18:47:00.269Z,24.50
2022-08-14T18:49:16.838Z,24.20
2022-08-14T18:51:47.038Z,24.10
2022-08-14T18:54:33.260Z,24.00
2022-08-14T18:57:05.192Z,23.80
2022-08-14T18:59:43.285Z,23.70
2022-08-14T19:02:43.607Z,23.60
2022-08-14T19:05:12.487Z,23.50
2022-08-14T19:07:40.899Z,23.40
2022-08-14T19:10:16.784Z,23.30
2022-08-14T19:13:05.005Z,23.10
2022-08-14T19:15:43.831Z,23.00
2022-08-14T19:18:27.925Z,22.80
2022-08-14T19:20:58.650Z,22.70
2022-08-14T19:23:44.179Z,22.60
2022-08-14T19:26:23.744Z,22.40
2022-08-14T19:29:37.889Z,22.30
2022-08-14T19:32:39.142Z,22.20
2022-08-14T19:35:49.795Z,22.10
2022-08-14T19:38:57.553Z,22.00
2022-08-14T19:41:29.144Z,21.90
2022-08-14T19:44:12.261Z,21.80
2022-08-14T19:47:01.130Z,21.70
2022-08-14T19:50:24.938Z,21.60
2022-08-14T19:52:30.093Z,21.50
2022-08-14T19:55:14.599Z,21.40
2022-08-14T19:57:42.769Z,21.30
2022-08-14T20:00:29.004Z,21.20
2022-08-14T20:03:05.973Z,21.20
2022-08-14T20:05:45.792Z,21.20
2022-08-14T20:11:01.152Z,21.10
2022-08-14T20:11:18.858Z,20.90
2022-08-14T20:14:10.532Z,20.80
2022-08-14T20:16:41.652Z,20.80
2022-08-14T20:19:17.171Z,20.70
2022-08-14T20:22:04.710Z,20.70
2022-08-14T20:24:40.962Z,20.60
2022-08-14T20:27:33.887Z,20.60
2022-08-14T20:30:33.007Z,20.50
2022-08-14T20:33:01.279Z,20.40
2022-08-14T20:35:35.287Z,20.40
2022-08-14T20:38:30.777Z,20.40
2022-08-14T20:40:58.695Z,20.40
2022-08-14T20:43:46.166Z,20.50
2022-08-14T20:46:16.897Z,20.40
2022-08-14T20:48:59.921Z,20.50
2022-08-14T20:51:36.690Z,20.60
2022-08-14T20:54:08.264Z,20.60
2022-08-14T20:56:40.559Z,20.40
2022-08-14T20:59:17.855Z,20.50
2022-08-14T21:01:51.558Z,20.50
2022-08-14T21:04:27.666Z,20.50
2022-08-14T21:07:26.211Z,20.50
2022-08-14T21:10:06.070Z,20.40
2022-08-14T21:12:36.155Z,20.40
2022-08-14T21:15:10.085Z,20.40
2022-08-14T21:17:43.326Z,20.30
2022-08-14T21:20:26.326Z,20.30
2022-08-14T21:23:00.463Z,20.20
2022-08-14T21:25:31.448Z,20.20
2022-08-14T21:28:04.050Z,20.10
2022-08-14T21:30:46.534Z,20.00
2022-08-14T21:33:20.439Z,19.90
2022-08-14T21:35:55.000Z,19.90
2022-08-14T21:38:33.871Z,19.90
2022-08-14T21:41:41.399Z,19.90
2022-08-14T21:44:17.738Z,19.80
2022-08-14T21:46:54.460Z,19.80
2022-08-14T21:49:33.910Z,19.80
2022-08-14T21:52:50.893Z,19.70
2022-08-14T21:54:59.704Z,19.60
2022-08-14T21:57:56.372Z,19.50
2022-08-14T22:00:35.657Z,19.40
2022-08-14T22:03:09.975Z,19.40
2022-08-14T22:05:41.637Z,19.40
2022-08-14T22:08:14.101Z,19.30
2022-08-14T22:10:44.812Z,19.30
2022-08-14T22:13:16.733Z,19.20
2022-08-14T22:15:50.012Z,19.20
2022-08-14T22:18:21.629Z,19.10
2022-08-14T22:20:56.458Z,19.10
2022-08-14T22:23:26.295Z,19.00
2022-08-14T22:25:56.051Z,18.90
2022-08-14T22:28:27.143Z,18.80
2022-08-14T22:31:03.265Z,18.80
2022-08-14T22:33:32.152Z,18.90
2022-08-14T22:36:25.491Z,18.80
2022-08-14T22:38:54.617Z,18.80
2022-08-14T22:41:27.584Z,18.80
2022-08-14T22:44:03.105Z,18.70
2022-08-14T22:46:31.208Z,18.60
2022-08-14T22:48:59.646Z,18.60
2022-08-14T22:51:48.522Z,18.60
2022-08-14T22:54:51.860Z,18.60
2022-08-14T22:57:06.939Z,18.50
2022-08-14T22:59:39.812Z,18.50
2022-08-14T23:02:12.607Z,18.60
2022-08-14T23:04:53.880Z,18.60
2022-08-14T23:07:24.747Z,18.60
2022-08-14T23:09:56.423Z,18.50
2022-08-14T23:12:29.562Z,18.50
2022-08-14T23:14:59.898Z,18.50
2022-08-14T23:17:39.119Z,18.50
2022-08-14T23:20:19.146Z,18.60
2022-08-14T23:22:52.626Z,18.60
2022-08-14T23:25:53.183Z,18.50
2022-08-14T23:28:32.793Z,18.60
2022-08-14T23:31:08.349Z,18.60
2022-08-14T23:33:45.772Z,18.60
2022-08-14T23:36:28.323Z,18.70
2022-08-14T23:39:00.247Z,18.70
2022-08-14T23:41:46.489Z,18.70
2022-08-14T23:44:20.285Z,18.70
2022-08-14T23:46:56.535Z,18.70
2022-08-14T23:49:26.039Z,18.60
2022-08-14T23:51:59.606Z,18.60
2022-08-14T23:54:48.187Z,18.60
2022-08-14T23:57:19.208Z,18.50
2022-08-14T23:59:54.850Z,18.50
